Time;durP1;ratioP1;P1;durP2;ratioP2;P2;SDS_P1;SDS_P2;PMS_P1;PMS_P2;Temp;Humidity;BMP_temperature;BMP_pressure;BME280_temperature;BME280_humidity;BME280_pressure;Samples;Min_cycle;Max_cycle;Signal;HPM_P1;HPM_P2
2023/12/04 00:00:38;;;;;;;3.17;0.50;;;;;;;-8.01;69.63;101691.50;5046747;28;20076;-75
2023/12/04 00:03:05;;;;;;;2.20;0.45;;;;;;;-8.08;69.50;101690.22;5047328;28;20131;-75
2023/12/04 00:05:32;;;;;;;1.40;0.40;;;;;;;-8.05;69.05;101692.97;5046050;28;20562;-75
2023/12/04 00:07:59;;;;;;;2.50;0.40;;;;;;;-8.07;69.14;101691.97;5049160;28;20126;-75
2023/12/04 00:10:25;;;;;;;1.58;0.43;;;;;;;-8.10;69.61;101686.69;5048229;28;20126;-75
2023/12/04 00:12:52;;;;;;;2.50;0.47;;;;;;;-8.14;69.75;101689.81;5047453;28;20076;-74
2023/12/04 00:15:21;;;;;;;0.90;0.40;;;;;;;-8.15;69.49;101687.16;5048366;28;20057;-76
2023/12/04 00:17:48;;;;;;;2.13;0.40;;;;;;;-8.18;69.31;101686.97;5047166;28;20060;-75
2023/12/04 00:20:15;;;;;;;1.35;0.50;;;;;;;-8.19;69.69;101691.16;5048636;28;20080;-75
2023/12/04 00:22:42;;;;;;;1.63;0.60;;;;;;;-8.21;69.88;101697.78;5045474;28;20471;-75
2023/12/04 00:25:09;;;;;;;1.30;0.40;;;;;;;-8.24;69.66;101698.47;5049802;28;20084;-75
2023/12/04 00:27:36;;;;;;;2.28;0.55;;;;;;;-8.25;69.18;101698.38;5045195;28;20135;-75
2023/12/04 00:30:04;;;;;;;1.63;0.40;;;;;;;-8.26;69.12;101689.88;5046178;28;20554;-75
2023/12/04 00:32:33;;;;;;;2.60;0.40;;;;;;;-8.28;69.23;101690.56;5049364;28;20501;-75
2023/12/04 00:34:59;;;;;;;1.52;0.47;;;;;;;-8.29;69.39;101693.84;5049099;28;20076;-75
2023/12/04 00:37:28;;;;;;;2.67;0.85;;;;;;;-8.31;69.07;101687.81;5049242;28;20379;-74
2023/12/04 00:39:55;;;;;;;1.42;0.55;;;;;;;-8.32;69.86;101689.44;5043489;28;20127;-69
2023/12/04 00:42:22;;;;;;;2.00;0.40;;;;;;;-8.34;69.13;101688.47;5043302;28;20045;-70
2023/12/04 00:44:49;;;;;;;1.30;0.50;;;;;;;-8.34;69.08;101687.56;5045382;28;20048;-69
2023/12/04 00:47:16;;;;;;;3.15;0.65;;;;;;;-8.36;69.77;101682.41;5049309;28;20511;-69
2023/12/04 00:49:44;;;;;;;1.35;0.45;;;;;;;-8.37;69.26;101682.28;5047543;28;20045;-69
2023/12/04 00:52:11;;;;;;;2.17;0.47;;;;;;;-8.39;69.73;101676.25;5046821;28;20076;-70
2023/12/04 00:54:40;;;;;;;1.50;0.40;;;;;;;-8.41;69.09;101670.19;5046965;28;20053;-70
2023/12/04 00:57:07;;;;;;;2.38;0.50;;;;;;;-8.45;68.88;101673.31;5046794;28;20057;-69
2023/12/04 00:59:34;;;;;;;1.10;0.50;;;;;;;-8.44;68.82;101677.59;5043142;28;20058;-70
2023/12/04 01:02:01;;;;;;;0.82;0.50;;;;;;;-8.45;69.59;101675.84;5043735;28;20080;-70
2023/12/04 01:04:28;;;;;;;1.13;0.40;;;;;;;-8.53;69.10;101655.88;5046697;28;20544;-70
2023/12/04 01:06:57;;;;;;;1.25;0.35;;;;;;;-8.50;69.60;101658.63;5044637;28;20099;-70
2023/12/04 01:09:24;;;;;;;1.67;0.80;;;;;;;-8.51;69.54;101661.06;5046747;28;20135;-70
2023/12/04 01:11:51;;;;;;;0.95;0.50;;;;;;;-8.53;69.13;101655.88;5045186;28;20044;-71
2023/12/04 01:14:18;;;;;;;0.80;0.40;;;;;;;-8.54;69.43;101660.84;5039166;28;20156;-70
2023/12/04 01:16:45;;;;;;;0.75;0.30;;;;;;;-8.55;69.62;101654.00;5043941;28;20068;-70
2023/12/04 01:19:12;;;;;;;1.23;0.50;;;;;;;-8.58;69.58;101662.28;5044503;28;20072;-70
2023/12/04 01:21:39;;;;;;;0.98;0.30;;;;;;;-8.58;69.65;101656.34;5045205;28;20076;-70
2023/12/04 01:24:08;;;;;;;0.85;0.40;;;;;;;-8.60;69.60;101661.28;5043642;28;20646;-70
2023/12/04 01:26:35;;;;;;;1.35;0.50;;;;;;;-8.62;69.39;101652.72;5045696;28;20136;-70
2023/12/04 01:29:01;;;;;;;1.30;0.50;;;;;;;-8.64;69.07;101656.78;5044567;28;20073;-70
2023/12/04 01:31:27;;;;;;;2.15;0.20;;;;;;;-8.64;69.34;101661.88;5047608;28;20152;-70
2023/12/04 01:33:54;;;;;;;3.10;0.50;;;;;;;-8.65;69.25;101656.72;5045159;28;20127;-70
2023/12/04 01:36:21;;;;;;;1.77;0.40;;;;;;;-8.67;69.60;101653.19;5044950;28;20044;-70
2023/12/04 01:38:48;;;;;;;1.13;0.45;;;;;;;-8.69;69.60;101651.41;5045939;28;20079;-70
2023/12/04 01:41:16;;;;;;;1.60;0.40;;;;;;;-8.70;69.78;101649.66;5043381;28;20077;-70
2023/12/04 01:43:43;;;;;;;1.95;0.50;;;;;;;-8.69;69.30;101656.47;5044385;28;20132;-70
2023/12/04 01:46:11;;;;;;;1.75;0.52;;;;;;;-8.73;68.89;101643.50;5044353;28;20140;-70
2023/12/04 01:48:38;;;;;;;1.15;0.40;;;;;;;-8.73;69.60;101644.38;5045291;28;20128;-74
2023/12/04 01:51:10;;;;;;;1.23;0.55;;;;;;;-8.72;69.59;101642.69;5045930;28;20124;-73
2023/12/04 01:53:40;;;;;;;3.45;0.40;;;;;;;-8.72;68.96;101641.03;5046743;28;20067;-74
2023/12/04 01:56:08;;;;;;;1.88;0.30;;;;;;;-8.72;68.96;101642.69;5038949;28;20053;-73
2023/12/04 01:58:38;;;;;;;0.82;0.30;;;;;;;-8.74;68.88;101639.16;5042256;28;20120;-74
2023/12/04 02:01:06;;;;;;;1.48;0.30;;;;;;;-8.74;68.99;101641.72;5044055;28;20134;-74
2023/12/04 02:03:33;;;;;;;1.05;0.32;;;;;;;-8.76;69.48;101630.59;5045913;28;21778;-74
2023/12/04 02:06:02;;;;;;;1.20;0.80;;;;;;;-8.76;69.69;101644.16;5043254;28;20757;-75
2023/12/04 02:08:29;;;;;;;0.90;0.40;;;;;;;-8.78;69.68;101633.00;5046017;28;20049;-68
2023/12/04 02:10:56;;;;;;;1.40;0.32;;;;;;;-8.77;69.03;101637.34;5046735;28;20173;-69
2023/12/04 02:13:23;;;;;;;1.30;0.50;;;;;;;-8.79;69.63;101628.72;5042116;28;20052;-69
2023/12/04 02:15:55;;;;;;;1.30;0.30;;;;;;;-8.80;69.39;101637.09;5046744;28;20049;-70
2023/12/04 02:18:23;;;;;;;0.70;0.30;;;;;;;-8.79;69.38;101633.81;5044600;28;20132;-70
2023/12/04 02:20:50;;;;;;;0.88;0.35;;;;;;;-8.80;69.83;101632.03;5043616;28;20045;-69
2023/12/04 02:23:17;;;;;;;1.33;0.50;;;;;;;-8.81;68.94;101625.19;5029562;28;20049;-70
2023/12/04 02:25:46;;;;;;;1.48;0.50;;;;;;;-8.80;70.00;101631.16;5036533;28;20489;-69
2023/12/04 02:28:15;;;;;;;0.95;0.30;;;;;;;-8.81;69.43;101637.00;5035647;28;20110;-70
2023/12/04 02:30:44;;;;;;;1.75;0.50;;;;;;;-8.82;69.46;101632.72;5037436;28;20112;-70
2023/12/04 02:33:15;;;;;;;1.52;0.50;;;;;;;-8.81;69.78;101629.41;5029898;28;21237;-69
2023/12/04 02:35:44;;;;;;;0.50;0.35;;;;;;;-8.81;69.80;101629.41;5035922;28;20651;-70
2023/12/04 02:38:11;;;;;;;1.48;0.32;;;;;;;-8.83;69.32;101626.75;5036511;28;20055;-69
2023/12/04 02:40:38;;;;;;;0.80;0.40;;;;;;;-8.82;69.91;101633.59;5037229;28;20063;-69
2023/12/04 02:43:07;;;;;;;1.10;0.40;;;;;;;-8.81;69.58;101639.53;5034651;28;20566;-69
2023/12/04 02:45:34;;;;;;;2.65;0.40;;;;;;;-8.81;69.24;101639.53;5038369;28;20045;-69
2023/12/04 02:48:01;;;;;;;1.77;0.45;;;;;;;-8.82;69.85;101637.78;5032893;28;20048;-69
2023/12/04 02:50:28;;;;;;;1.50;0.65;;;;;;;-8.81;69.25;101653.09;5038361;28;20041;-69
2023/12/04 02:52:55;;;;;;;0.70;0.40;;;;;;;-8.79;69.73;101643.06;5037299;28;20113;-70
2023/12/04 02:55:21;;;;;;;1.73;0.60;;;;;;;-8.79;69.36;101638.00;5036574;28;20158;-69
2023/12/04 02:57:48;;;;;;;1.90;0.50;;;;;;;-8.78;69.94;101630.47;5035076;28;20140;-69
2023/12/04 03:00:17;;;;;;;1.38;0.43;;;;;;;-8.78;69.45;101624.53;5037853;28;20072;-69
2023/12/04 03:02:44;;;;;;;1.00;0.50;;;;;;;-8.77;69.70;101622.13;5035039;28;20072;-69
2023/12/04 03:05:11;;;;;;;1.25;0.50;;;;;;;-8.77;69.17;101623.75;5035848;28;20188;-69
2023/12/04 03:07:38;;;;;;;1.95;0.47;;;;;;;-8.77;69.95;101623.75;5036524;28;20140;-69
2023/12/04 03:10:06;;;;;;;1.35;0.75;;;;;;;-8.78;69.94;101629.59;5036596;28;20056;-69
2023/12/04 03:12:33;;;;;;;1.33;0.40;;;;;;;-8.78;69.82;101622.00;5037152;28;20084;-69
2023/12/04 03:15:00;;;;;;;1.80;0.57;;;;;;;-8.77;69.23;101636.44;5031879;28;20792;-69
2023/12/04 03:17:29;;;;;;;1.83;0.43;;;;;;;-8.79;69.38;101633.81;5037340;28;20495;-70
2023/12/04 03:19:55;;;;;;;0.80;0.30;;;;;;;-8.78;69.16;101629.59;5035648;28;20095;-70
2023/12/04 03:22:22;;;;;;;1.13;0.50;;;;;;;-8.78;69.23;101629.59;5037218;28;20076;-70
2023/12/04 03:24:49;;;;;;;0.90;0.40;;;;;;;-8.79;69.69;101630.38;5038148;28;20130;-72
2023/12/04 03:27:16;;;;;;;3.33;0.47;;;;;;;-8.80;69.81;101634.56;5049656;28;20617;-70
2023/12/04 03:29:43;;;;;;;0.88;0.60;;;;;;;-8.80;69.52;101631.16;5049115;28;20120;-70
2023/12/04 03:32:10;;;;;;;1.42;0.50;;;;;;;-8.79;69.25;101627.84;5048776;28;20044;-70
2023/12/04 03:34:38;;;;;;;1.42;0.50;;;;;;;-8.82;69.69;101623.44;5047585;28;20128;-70
2023/12/04 03:37:05;;;;;;;1.17;0.60;;;;;;;-8.82;69.52;101627.66;5047566;28;20045;-70
2023/12/04 03:39:32;;;;;;;1.38;0.40;;;;;;;-8.84;69.51;101626.66;5047354;28;20159;-70
2023/12/04 03:41:59;;;;;;;2.28;0.50;;;;;;;-8.86;69.14;101615.50;5048056;28;20474;-71
2023/12/04 03:44:26;;;;;;;1.35;0.40;;;;;;;-8.86;69.58;101618.03;5043060;28;20100;-71
2023/12/04 03:46:53;;;;;;;2.20;0.45;;;;;;;-8.86;69.31;101629.06;5046030;28;20038;-70
2023/12/04 03:49:20;;;;;;;0.52;0.20;;;;;;;-8.87;69.01;101623.91;5046163;28;20806;-69
2023/12/04 03:51:48;;;;;;;1.80;0.63;;;;;;;-8.89;69.34;101620.38;5049501;28;20558;-69
2023/12/04 03:54:15;;;;;;;3.05;0.60;;;;;;;-8.89;69.71;101622.91;5048685;28;20076;-69
2023/12/04 03:56:42;;;;;;;2.40;0.70;;;;;;;-8.90;68.97;101621.16;5046369;28;20574;-69
2023/12/04 03:59:10;;;;;;;1.85;0.45;;;;;;;-8.92;69.03;101614.31;5048513;28;20103;-69
2023/12/04 04:01:37;;;;;;;1.38;0.57;;;;;;;-8.93;69.56;101620.16;5049434;28;20048;-70
2023/12/04 04:04:04;;;;;;;3.13;0.70;;;;;;;-8.94;69.62;101615.88;5047373;28;20081;-70
2023/12/04 04:06:31;;;;;;;0.70;0.30;;;;;;;-8.94;69.41;101613.34;5049001;28;20042;-70
2023/12/04 04:09:00;;;;;;;1.58;0.50;;;;;;;-8.94;69.75;101620.94;5045041;28;20499;-74
2023/12/04 04:11:27;;;;;;;1.30;0.30;;;;;;;-8.95;69.65;101605.63;5048638;28;20045;-74
2023/12/04 04:13:54;;;;;;;4.15;0.50;;;;;;;-8.97;69.35;101603.00;5045675;28;20045;-73
2023/12/04 04:16:21;;;;;;;0.90;0.38;;;;;;;-8.97;69.50;101608.06;5050390;28;20080;-73
2023/12/04 04:18:48;;;;;;;1.35;0.50;;;;;;;-8.98;69.54;101605.41;5047580;28;20045;-73
2023/12/04 04:21:15;;;;;;;1.60;0.45;;;;;;;-9.00;69.40;101606.94;5047245;28;20052;-73
2023/12/04 04:23:42;;;;;;;0.70;0.30;;;;;;;-8.99;69.84;101614.66;5045208;28;20053;-73
2023/12/04 04:26:10;;;;;;;0.80;0.32;;;;;;;-9.00;69.44;101612.00;5037856;28;20049;-74
2023/12/04 04:28:37;;;;;;;0.57;0.30;;;;;;;-8.99;68.98;101612.13;5048213;28;20087;-70
2023/12/04 04:31:04;;;;;;;0.93;0.35;;;;;;;-8.98;69.85;101615.53;5047018;28;20506;-70
2023/12/04 04:33:31;;;;;;;0.52;0.30;;;;;;;-8.96;69.76;101614.00;5042403;28;20077;-69
2023/12/04 04:35:58;;;;;;;2.25;0.43;;;;;;;-8.97;69.04;101610.59;5043170;28;20068;-69
2023/12/04 04:38:25;;;;;;;0.80;0.30;;;;;;;-8.95;69.21;101605.63;5048386;28;20126;-69
2023/12/04 04:40:52;;;;;;;2.55;0.52;;;;;;;-8.94;69.81;101602.28;5043073;28;20135;-69
2023/12/04 04:43:21;;;;;;;2.35;0.68;;;;;;;-8.94;69.78;101608.28;5047047;28;20760;-69
2023/12/04 04:45:48;;;;;;;0.80;0.32;;;;;;;-8.91;69.47;101607.59;5043746;28;20140;-69
2023/12/04 04:48:15;;;;;;;0.77;0.40;;;;;;;-8.90;69.78;101614.44;5049284;28;20091;-70
2023/12/04 04:50:42;;;;;;;0.60;0.30;;;;;;;-8.87;69.66;101608.69;5045272;28;20110;-70
2023/12/04 04:53:09;;;;;;;1.33;0.40;;;;;;;-8.84;69.90;101608.91;5048010;28;20996;-70
2023/12/04 04:55:36;;;;;;;1.02;0.30;;;;;;;-8.83;69.49;101603.91;5045418;28;20585;-69
2023/12/04 04:58:03;;;;;;;0.80;0.32;;;;;;;-8.80;69.94;101598.16;5046105;28;20087;-70
2023/12/04 05:00:31;;;;;;;3.05;0.40;;;;;;;-8.78;69.52;101594.97;5043977;28;20049;-69
2023/12/04 05:02:58;;;;;;;1.70;0.40;;;;;;;-8.74;69.75;101590.97;5044504;28;20787;-70
2023/12/04 05:05:25;;;;;;;1.00;0.30;;;;;;;-8.72;70.31;101592.84;5044934;28;20129;-69
2023/12/04 05:07:52;;;;;;;1.30;0.63;;;;;;;-8.70;70.03;101596.38;5047610;28;20132;-69
2023/12/04 05:10:19;;;;;;;1.30;0.40;;;;;;;-8.67;70.30;101600.78;5046865;28;20049;-69
2023/12/04 05:12:46;;;;;;;3.33;0.45;;;;;;;-8.64;70.40;101602.66;5047092;28;20225;-70
2023/12/04 05:15:13;;;;;;;1.63;0.50;;;;;;;-8.62;70.01;101596.91;5046572;28;20554;-69
2023/12/04 05:17:42;;;;;;;2.42;0.40;;;;;;;-8.58;70.20;101605.59;5048009;28;20208;-70
2023/12/04 05:20:10;;;;;;;0.60;0.35;;;;;;;-8.55;70.01;101604.13;5045817;28;20055;-73
2023/12/04 05:22:37;;;;;;;2.00;0.40;;;;;;;-8.54;70.10;101605.91;5046507;28;20057;-73
2023/12/04 05:25:04;;;;;;;0.90;0.40;;;;;;;-8.53;70.05;101597.50;5047476;28;20087;-74
2023/12/04 05:27:31;;;;;;;1.38;0.30;;;;;;;-8.48;69.88;101596.19;5045923;28;20138;-73
2023/12/04 05:29:58;;;;;;;1.20;0.55;;;;;;;-8.45;70.05;101598.03;5047123;28;20045;-74
2023/12/04 05:32:25;;;;;;;1.15;0.50;;;;;;;-8.45;69.92;101587.03;5045524;28;20129;-74
2023/12/04 05:34:53;;;;;;;3.55;0.40;;;;;;;-8.40;70.03;101593.25;5048069;28;20087;-74
2023/12/04 05:37:20;;;;;;;0.80;0.32;;;;;;;-8.36;69.74;101592.69;5046702;28;20131;-74
2023/12/04 05:39:47;;;;;;;1.58;0.55;;;;;;;-8.33;69.88;101587.81;5037027;28;20041;-70
2023/12/04 05:42:14;;;;;;;1.30;0.50;;;;;;;-8.32;70.66;101589.56;5043397;28;20087;-70
2023/12/04 05:44:41;;;;;;;1.45;0.30;;;;;;;-8.29;70.31;101598.25;5043149;28;20092;-70
2023/12/04 05:47:08;;;;;;;1.70;0.50;;;;;;;-8.26;70.37;101587.44;5041578;28;20107;-70
2023/12/04 05:49:35;;;;;;;1.35;0.50;;;;;;;-8.23;70.77;101592.72;5040220;28;20057;-70
2023/12/04 05:52:03;;;;;;;0.70;0.35;;;;;;;-8.22;70.34;101589.41;5038795;28;20076;-70
2023/12/04 05:54:30;;;;;;;0.93;0.32;;;;;;;-8.18;70.30;101591.38;5045546;28;20506;-70
2023/12/04 05:56:58;;;;;;;1.38;0.75;;;;;;;-8.17;70.43;101588.06;5042648;28;20076;-70
2023/12/04 05:59:25;;;;;;;1.38;0.40;;;;;;;-8.14;69.91;101580.66;5043073;28;20057;-70
2023/12/04 06:01:52;;;;;;;0.75;0.32;;;;;;;-8.13;70.81;101579.84;5041975;28;20048;-70
2023/12/04 06:04:19;;;;;;;1.48;0.40;;;;;;;-8.10;70.82;101576.66;4995897;28;20072;-70
2023/12/04 06:06:46;;;;;;;0.60;0.30;;;;;;;-8.07;70.77;101575.19;5056148;28;20136;-71
2023/12/04 06:09:15;;;;;;;1.95;0.30;;;;;;;-8.06;70.46;101576.97;5065307;28;20084;-70
2023/12/04 06:11:42;;;;;;;1.20;0.40;;;;;;;-8.05;70.29;101571.09;5058949;28;20048;-69
2023/12/04 06:14:09;;;;;;;0.80;0.32;;;;;;;-8.03;70.60;101571.16;5066488;28;20045;-69
2023/12/04 06:16:36;;;;;;;1.63;0.70;;;;;;;-8.01;70.17;101575.56;5063691;28;20127;-69
2023/12/04 06:19:04;;;;;;;1.17;0.30;;;;;;;-7.99;70.78;101574.81;5061611;28;20044;-69
2023/12/04 06:21:31;;;;;;;1.08;0.40;;;;;;;-7.97;70.74;101580.84;5002881;28;20058;-69
2023/12/04 06:23:59;;;;;;;0.10;0.10;;;;;;;-7.95;70.69;101584.38;5063459;28;20128;-69
2023/12/04 06:26:28;;;;;;;1.00;0.40;;;;;;;-7.94;70.26;101586.13;5061439;28;20049;-69
2023/12/04 06:28:55;;;;;;;1.00;0.38;;;;;;;-7.92;70.19;101582.03;5064715;28;20090;-68
2023/12/04 06:31:23;;;;;;;0.88;0.38;;;;;;;-7.89;69.98;101579.69;5061311;28;20055;-69
2023/12/04 06:33:51;;;;;;;1.80;0.60;;;;;;;-7.88;70.53;101586.53;5062985;28;20048;-69
2023/12/04 06:36:19;;;;;;;1.45;0.50;;;;;;;-7.88;70.49;101582.34;5062974;28;20113;-69
2023/12/04 06:38:48;;;;;;;0.77;0.30;;;;;;;-7.86;69.99;101585.88;5059451;28;20589;-69
2023/12/04 06:41:17;;;;;;;1.17;0.50;;;;;;;-7.85;70.41;101587.63;5057742;28;20060;-69
2023/12/04 06:43:46;;;;;;;1.40;0.52;;;;;;;-7.84;70.71;101594.44;5065264;28;20044;-68
2023/12/04 06:46:16;;;;;;;1.30;0.70;;;;;;;-7.83;70.38;101597.84;5062816;28;20155;-69
2023/12/04 06:48:44;;;;;;;1.58;0.63;;;;;;;-7.82;70.25;101597.97;5064057;28;20052;-75
2023/12/04 06:51:11;;;;;;;1.05;0.30;;;;;;;-7.80;70.22;101595.53;5061102;28;20506;-73
2023/12/04 06:53:38;;;;;;;0.93;0.40;;;;;;;-7.78;70.60;101601.59;5061808;28;20071;-71
2023/12/04 06:56:06;;;;;;;1.20;0.32;;;;;;;-7.77;70.64;101603.38;5065684;28;20498;-73
2023/12/04 06:58:33;;;;;;;1.23;0.50;;;;;;;-7.75;70.12;101603.44;5061017;28;20128;-72
2023/12/04 07:01:02;;;;;;;1.25;0.60;;;;;;;-7.74;70.65;101601.00;5033512;28;20099;-72
2023/12/04 07:03:29;;;;;;;0.80;0.47;;;;;;;-7.74;70.51;101601.00;5060330;28;20092;-71
2023/12/04 07:05:56;;;;;;;1.23;0.55;;;;;;;-7.72;70.10;101599.44;5063358;28;20608;-72
2023/12/04 07:08:22;;;;;;;3.30;2.75;;;;;;;-7.71;70.71;101608.84;5059190;28;20147;-75
2023/12/04 07:10:50;;;;;;;2.33;0.60;;;;;;;-7.70;70.76;101605.50;5062078;28;20079;-73
2023/12/04 07:13:17;;;;;;;2.10;0.63;;;;;;;-7.68;70.85;101610.69;5062348;28;20071;-72
2023/12/04 07:15:44;;;;;;;1.17;0.40;;;;;;;-7.67;70.80;101615.84;5062126;28;20053;-72
2023/12/04 07:18:12;;;;;;;1.60;0.50;;;;;;;-7.66;70.89;101614.19;5059877;28;20996;-73
2023/12/04 07:20:39;;;;;;;1.70;0.40;;;;;;;-7.65;70.50;101616.84;5065229;28;20048;-73
2023/12/04 07:23:06;;;;;;;1.63;0.68;;;;;;;-7.64;70.27;101623.66;5059727;28;20072;-72
2023/12/04 07:25:33;;;;;;;2.13;0.60;;;;;;;-7.61;70.68;101617.91;5064289;28;20132;-73
2023/12/04 07:28:00;;;;;;;1.52;0.55;;;;;;;-7.60;70.35;101620.56;5057538;28;20481;-73
2023/12/04 07:30:27;;;;;;;2.80;0.60;;;;;;;-7.58;70.81;101616.44;5063050;28;20132;-72
2023/12/04 07:32:54;;;;;;;1.20;0.43;;;;;;;-7.58;70.08;101621.53;5062079;28;20044;-73
2023/12/04 07:35:23;;;;;;;1.25;0.50;;;;;;;-7.57;70.18;101620.75;5059102;28;20045;-72
2023/12/04 07:37:50;;;;;;;1.58;0.60;;;;;;;-7.53;70.15;101628.56;5060641;28;20519;-73
2023/12/04 07:40:17;;;;;;;1.95;0.70;;;;;;;-7.53;70.78;101620.97;5062379;28;20133;-70
2023/12/04 07:42:44;;;;;;;0.88;0.68;;;;;;;-7.51;70.39;101627.03;5057643;28;20151;-70
2023/12/04 07:45:12;;;;;;;2.03;0.50;;;;;;;-7.51;70.94;101622.81;5058923;28;20565;-70
2023/12/04 07:47:39;;;;;;;1.25;0.43;;;;;;;-7.48;70.70;101629.75;5061957;28;20051;-70
2023/12/04 07:50:07;;;;;;;2.35;0.55;;;;;;;-7.48;70.86;101624.69;5061908;28;20090;-71
2023/12/04 07:52:35;;;;;;;1.88;0.55;;;;;;;-7.48;70.88;101624.69;5062539;28;20048;-70
2023/12/04 07:55:02;;;;;;;2.13;0.70;;;;;;;-7.46;70.44;101628.16;5061263;28;20171;-70
2023/12/04 07:57:29;;;;;;;0.93;0.35;;;;;;;-7.46;70.48;101625.63;5060416;28;20114;-71
2023/12/04 07:59:56;;;;;;;1.15;0.40;;;;;;;-7.45;70.36;101635.03;5062162;28;20116;-72
2023/12/04 08:02:23;;;;;;;2.22;0.85;;;;;;;-7.46;70.09;101634.16;5061674;28;20052;-69
2023/12/04 08:04:50;;;;;;;3.80;0.70;;;;;;;-7.45;70.22;101640.13;5060158;28;20592;-71
2023/12/04 08:07:17;;;;;;;2.97;0.77;;;;;;;-7.44;70.32;101641.88;5063635;28;20049;-71
2023/12/04 08:09:45;;;;;;;2.33;0.57;;;;;;;-7.44;70.64;101639.31;5061025;28;20045;-70
2023/12/04 08:12:13;;;;;;;2.70;0.50;;;;;;;-7.45;69.96;101645.19;5061245;28;20075;-71
2023/12/04 08:14:39;;;;;;;3.47;0.60;;;;;;;-7.44;70.17;101642.75;5062840;28;20048;-70
2023/12/04 08:17:06;;;;;;;0.90;0.32;;;;;;;-7.44;70.15;101645.28;5067123;28;20128;-70
2023/12/04 08:19:33;;;;;;;1.65;0.45;;;;;;;-7.43;70.69;101644.53;5064501;28;20506;-70
2023/12/04 08:22:00;;;;;;;3.00;0.73;;;;;;;-7.43;70.61;101647.06;5067751;28;20040;-69
2023/12/04 08:24:27;;;;;;;1.20;0.68;;;;;;;-7.43;70.05;101641.97;5060438;28;20513;-73
2023/12/04 08:26:57;;;;;;;1.73;1.08;;;;;;;-7.44;70.18;101652.91;5066913;28;20124;-72
2023/12/04 08:29:24;;;;;;;1.10;0.50;;;;;;;-7.44;70.70;101657.13;5062598;28;20088;-71
2023/12/04 08:31:51;;;;;;;1.20;0.47;;;;;;;-7.44;69.89;101657.13;5065309;28;20079;-70
2023/12/04 08:34:18;;;;;;;2.33;0.52;;;;;;;-7.44;70.04;101663.06;5064294;28;20127;-70
2023/12/04 08:36:45;;;;;;;3.47;0.70;;;;;;;-7.44;70.19;101665.63;5067811;28;20127;-71
2023/12/04 08:39:12;;;;;;;0.88;0.45;;;;;;;-7.43;70.68;101667.41;5060979;28;20688;-71
2023/12/04 08:41:39;;;;;;;1.80;0.55;;;;;;;-7.43;70.64;101671.56;5064946;28;20049;-73
2023/12/04 08:44:07;;;;;;;2.10;0.60;;;;;;;-7.41;70.49;101680.19;5062197;28;20071;-70
2023/12/04 08:46:34;;;;;;;2.00;0.60;;;;;;;-7.42;70.15;101679.31;5066690;28;20080;-70
2023/12/04 08:49:01;;;;;;;4.40;0.80;;;;;;;-7.40;70.47;101676.88;5064604;28;20443;-76
2023/12/04 08:51:28;;;;;;;2.03;0.68;;;;;;;-7.40;70.58;101669.25;5065844;28;20083;-75
2023/12/04 08:53:55;;;;;;;2.00;0.63;;;;;;;-7.40;70.09;101675.22;5065879;28;20044;-77
2023/12/04 08:56:22;;;;;;;1.95;0.82;;;;;;;-7.40;70.05;101664.19;5067914;28;20076;-74
2023/12/04 08:58:50;;;;;;;1.75;0.57;;;;;;;-7.39;70.60;101673.56;5062552;28;20132;-77
2023/12/04 09:01:19;;;;;;;2.25;0.93;;;;;;;-7.37;70.58;101675.41;5072108;28;20055;-77
2023/12/04 09:03:46;;;;;;;2.47;0.73;;;;;;;-7.36;70.04;101683.91;5063958;28;20116;-77
2023/12/04 09:06:14;;;;;;;1.58;0.57;;;;;;;-7.35;70.55;101684.03;5069270;28;20131;-76
2023/12/04 09:08:41;;;;;;;1.40;0.75;;;;;;;-7.34;70.13;101684.91;5065155;28;20043;-70
2023/12/04 09:11:11;;;;;;;2.80;0.60;;;;;;;-7.31;70.67;101686.75;5066513;28;20068;-71
2023/12/04 09:13:38;;;;;;;1.88;0.60;;;;;;;-7.31;70.54;101679.13;5064345;28;20094;-71
2023/12/04 09:16:06;;;;;;;1.17;0.55;;;;;;;-7.30;70.27;101680.88;5068679;28;20053;-70
2023/12/04 09:18:34;;;;;;;1.30;0.60;;;;;;;-7.30;70.77;101681.75;5066991;28;20080;-71
2023/12/04 09:21:01;;;;;;;2.20;1.10;;;;;;;-7.33;70.27;101671.41;5062094;28;20075;-70
2023/12/04 09:23:28;;;;;;;1.27;0.40;;;;;;;-7.29;70.02;101678.41;5063938;28;20045;-70
2023/12/04 09:25:55;;;;;;;4.53;1.00;;;;;;;-7.28;70.44;101692.91;5064513;28;20124;-70
2023/12/04 09:28:22;;;;;;;1.70;0.68;;;;;;;-7.26;70.73;101693.91;5063783;28;20138;-72
2023/12/04 09:30:49;;;;;;;1.42;0.60;;;;;;;-7.26;70.28;101688.81;5061701;28;20041;-70
2023/12/04 09:33:16;;;;;;;2.60;0.73;;;;;;;-7.24;69.96;101689.78;5066337;28;20057;-71
2023/12/04 09:35:44;;;;;;;2.40;0.85;;;;;;;-7.23;70.60;101685.56;5063566;28;20565;-70
2023/12/04 09:38:11;;;;;;;1.77;0.88;;;;;;;-7.21;70.26;101684.00;5064138;28;20140;-70
2023/12/04 09:40:38;;;;;;;2.08;0.70;;;;;;;-7.19;70.25;101690.94;5064256;28;20119;-70
2023/12/04 09:43:07;;;;;;;2.40;0.70;;;;;;;-7.16;70.74;101685.19;5065437;28;20115;-70
2023/12/04 09:45:34;;;;;;;1.52;0.57;;;;;;;-7.15;70.85;101685.28;5062067;28;20073;-70
2023/12/04 09:48:01;;;;;;;2.55;0.77;;;;;;;-7.13;70.41;101683.72;5064663;28;20051;-70
2023/12/04 09:50:28;;;;;;;2.33;0.73;;;;;;;-7.10;70.22;101675.41;5056691;28;20572;-70
2023/12/04 09:53:00;;;;;;;2.05;1.00;;;;;;;-7.08;70.66;101678.06;5067398;28;20045;-69
2023/12/04 09:55:27;;;;;;;5.75;1.10;;;;;;;-7.04;70.13;101682.53;5063755;28;20072;-69
2023/12/04 09:57:57;;;;;;;3.70;0.80;;;;;;;-7.04;70.88;101668.16;5062359;28;20076;-69
2023/12/04 10:00:25;;;;;;;2.90;0.60;;;;;;;-7.00;70.88;101679.41;5060766;28;20136;-72
2023/12/04 10:02:53;;;;;;;1.73;0.60;;;;;;;-6.99;70.32;101676.06;5062710;28;20115;-74
2023/12/04 10:05:20;;;;;;;3.42;1.27;;;;;;;-6.97;70.82;101675.41;5061166;28;20053;-76
2023/12/04 10:07:48;;;;;;;1.70;0.63;;;;;;;-6.96;70.17;101666.09;5065229;28;20048;-75
2023/12/04 10:10:16;;;;;;;2.13;0.95;;;;;;;-6.93;70.70;101663.72;5062184;28;20053;-72
2023/12/04 10:12:44;;;;;;;2.20;0.60;;;;;;;-6.92;70.29;101656.19;5064846;28;20053;-72
2023/12/04 10:15:13;;;;;;;0.90;0.50;;;;;;;-6.90;70.65;101653.72;5064520;28;20040;-72
2023/12/04 10:17:41;;;;;;;1.95;0.52;;;;;;;-6.88;70.46;101658.13;5063351;28;20060;-73
2023/12/04 10:20:12;;;;;;;1.40;0.55;;;;;;;-6.87;70.70;101667.50;5063126;28;20072;-72
2023/12/04 10:22:40;;;;;;;2.25;0.73;;;;;;;-6.85;70.31;101662.50;5061328;28;20045;-70
2023/12/04 10:25:18;;;;;;;1.17;0.60;;;;;;;-6.85;70.04;101662.50;5064924;28;20072;-70
2023/12/04 10:27:45;;;;;;;2.55;0.80;;;;;;;-6.82;70.40;101669.47;5062157;28;20414;-70
2023/12/04 10:30:24;;;;;;;5.32;1.02;;;;;;;-6.81;70.27;101674.63;5064602;28;20052;-69
2023/12/04 10:32:56;;;;;;;3.17;0.68;;;;;;;-6.81;70.31;101674.63;5064011;28;20045;-73
2023/12/04 10:35:23;;;;;;;2.10;0.85;;;;;;;-6.79;70.09;101674.75;5063769;28;20460;-72
2023/12/04 10:37:54;;;;;;;2.03;0.73;;;;;;;-6.79;70.37;101667.97;5060722;28;20045;-75
2023/12/04 10:40:27;;;;;;;3.35;0.88;;;;;;;-6.77;70.32;101673.19;5062207;28;20056;-75
2023/12/04 10:43:11;;;;;;;2.53;0.50;;;;;;;-6.75;70.49;101669.94;5063482;28;20087;-76
2023/12/04 10:45:39;;;;;;;1.75;0.93;;;;;;;-6.75;70.20;101664.84;5062095;28;20048;-76
2023/12/04 10:48:06;;;;;;;2.95;0.77;;;;;;;-6.73;70.13;101663.25;5065550;28;20076;-74
2023/12/04 10:50:34;;;;;;;5.47;0.60;;;;;;;-6.72;70.04;101666.69;5065025;28;20123;-71
2023/12/04 10:53:03;;;;;;;1.50;0.60;;;;;;;-6.72;70.15;101672.69;5061554;28;20037;-71
2023/12/04 10:55:33;;;;;;;1.48;0.47;;;;;;;-6.70;69.96;101673.63;5063451;28;20041;-70
2023/12/04 10:58:03;;;;;;;1.75;0.70;;;;;;;-6.69;70.17;101674.53;5059893;28;20044;-71
2023/12/04 11:00:33;;;;;;;3.28;0.88;;;;;;;-6.69;70.21;101672.88;5061926;28;20131;-71
2023/12/04 11:03:05;;;;;;;1.55;0.60;;;;;;;-6.68;69.95;101674.59;5059294;28;20056;-73
2023/12/04 11:05:35;;;;;;;1.15;0.60;;;;;;;-6.67;70.22;101673.81;5061044;28;20109;-71
2023/12/04 11:08:04;;;;;;;3.67;0.60;;;;;;;-6.66;70.60;101675.59;5063453;28;20102;-73
2023/12/04 11:10:34;;;;;;;3.22;0.60;;;;;;;-6.63;70.45;101679.09;5064877;28;20048;-72
2023/12/04 11:13:07;;;;;;;2.03;0.63;;;;;;;-6.63;69.82;101672.34;5062221;28;20041;-71
2023/12/04 11:15:40;;;;;;;1.92;0.60;;;;;;;-6.61;70.01;101677.53;5062720;28;20052;-70
2023/12/04 11:18:09;;;;;;;3.08;0.93;;;;;;;-6.62;70.10;101676.66;5062419;28;20068;-70
2023/12/04 11:20:45;;;;;;;2.35;0.50;;;;;;;-6.59;69.93;101681.06;5062534;28;20049;-71
2023/12/04 11:23:15;;;;;;;2.20;0.63;;;;;;;-6.60;70.03;101674.22;5060940;28;20044;-70
2023/12/04 11:25:47;;;;;;;1.35;0.63;;;;;;;-6.59;69.94;101676.84;5064421;28;20041;-70